sensor_id;sensor_type;location;lat;lon;timestamp;temperature;humidity
39401;DHT22;54391;50.000;7.360;2022-12-13T00:00:19;-4.50;58.50
39401;DHT22;54391;50.000;7.360;2022-12-13T00:03:06;-4.50;59.40
39401;DHT22;54391;50.000;7.360;2022-12-13T00:05:53;-4.50;59.30
39401;DHT22;54391;50.000;7.360;2022-12-13T00:08:40;-4.50;60.10
39401;DHT22;54391;50.000;7.360;2022-12-13T00:11:26;-4.60;59.50
39401;DHT22;54391;50.000;7.360;2022-12-13T00:14:12;-4.60;59.70
39401;DHT22;54391;50.000;7.360;2022-12-13T00:16:58;-4.60;59.80
39401;DHT22;54391;50.000;7.360;2022-12-13T00:22:31;-4.70;60.40
39401;DHT22;54391;50.000;7.360;2022-12-13T00:25:17;-4.70;60.70
39401;DHT22;54391;50.000;7.360;2022-12-13T00:28:05;-4.70;60.80
39401;DHT22;54391;50.000;7.360;2022-12-13T00:30:56;-4.70;61.90
39401;DHT22;54391;50.000;7.360;2022-12-13T00:36:27;-4.80;61.80
39401;DHT22;54391;50.000;7.360;2022-12-13T00:39:15;-4.80;62.60
39401;DHT22;54391;50.000;7.360;2022-12-13T00:42:02;-4.80;63.30
39401;DHT22;54391;50.000;7.360;2022-12-13T00:44:48;-4.80;63.20
39401;DHT22;54391;50.000;7.360;2022-12-13T00:47:34;-4.80;63.50
39401;DHT22;54391;50.000;7.360;2022-12-13T00:50:20;-4.80;64.90
39401;DHT22;54391;50.000;7.360;2022-12-13T00:55:54;-4.90;65.20
39401;DHT22;54391;50.000;7.360;2022-12-13T00:58:41;-4.80;65.40
39401;DHT22;54391;50.000;7.360;2022-12-13T01:01:29;-4.80;65.10
39401;DHT22;54391;50.000;7.360;2022-12-13T01:04:15;-4.80;64.80
39401;DHT22;54391;50.000;7.360;2022-12-13T01:07:01;-4.80;64.10
39401;DHT22;54391;50.000;7.360;2022-12-13T01:12:34;-4.80;63.70
39401;DHT22;54391;50.000;7.360;2022-12-13T01:15:20;-4.90;63.50
39401;DHT22;54391;50.000;7.360;2022-12-13T01:18:06;-4.80;63.00
39401;DHT22;54391;50.000;7.360;2022-12-13T01:21:00;-4.90;61.80
39401;DHT22;54391;50.000;7.360;2022-12-13T01:23:48;-5.00;61.60
39401;DHT22;54391;50.000;7.360;2022-12-13T01:26:34;-4.90;61.60
39401;DHT22;54391;50.000;7.360;2022-12-13T01:29:21;-4.90;60.50
39401;DHT22;54391;50.000;7.360;2022-12-13T01:32:08;-4.90;59.40
39401;DHT22;54391;50.000;7.360;2022-12-13T01:34:54;-4.90;58.70
39401;DHT22;54391;50.000;7.360;2022-12-13T01:37:40;-5.00;58.40
39401;DHT22;54391;50.000;7.360;2022-12-13T01:40:26;-5.00;57.80
39401;DHT22;54391;50.000;7.360;2022-12-13T01:43:12;-5.10;58.20
39401;DHT22;54391;50.000;7.360;2022-12-13T01:46:00;-5.00;58.10
39401;DHT22;54391;50.000;7.360;2022-12-13T01:48:51;-5.00;57.10
39401;DHT22;54391;50.000;7.360;2022-12-13T01:51:41;-4.90;56.80
39401;DHT22;54391;50.000;7.360;2022-12-13T01:54:31;-5.00;56.30
39401;DHT22;54391;50.000;7.360;2022-12-13T01:57:20;-5.00;55.70
39401;DHT22;54391;50.000;7.360;2022-12-13T02:00:08;-5.00;56.20
39401;DHT22;54391;50.000;7.360;2022-12-13T02:02:57;-5.10;56.10
39401;DHT22;54391;50.000;7.360;2022-12-13T02:05:49;-5.00;56.70
39401;DHT22;54391;50.000;7.360;2022-12-13T02:08:36;-5.00;55.80
39401;DHT22;54391;50.000;7.360;2022-12-13T02:11:24;-5.10;55.10
39401;DHT22;54391;50.000;7.360;2022-12-13T02:14:11;-5.10;55.90
39401;DHT22;54391;50.000;7.360;2022-12-13T02:17:03;-5.10;56.30
39401;DHT22;54391;50.000;7.360;2022-12-13T02:23:47;-3.40;57.30
39401;DHT22;54391;50.000;7.360;2022-12-13T02:26:55;-5.20;56.50
39401;DHT22;54391;50.000;7.360;2022-12-13T02:30:21;-5.20;56.80
39401;DHT22;54391;50.000;7.360;2022-12-13T02:33:31;-5.20;57.00
39401;DHT22;54391;50.000;7.360;2022-12-13T02:36:22;-5.20;56.60
39401;DHT22;54391;50.000;7.360;2022-12-13T02:39:17;-5.20;56.00
39401;DHT22;54391;50.000;7.360;2022-12-13T02:42:09;-5.20;54.00
39401;DHT22;54391;50.000;7.360;2022-12-13T02:45:01;-5.30;54.20
39401;DHT22;54391;50.000;7.360;2022-12-13T02:47:53;-5.20;53.80
39401;DHT22;54391;50.000;7.360;2022-12-13T02:50:41;-5.30;53.90
39401;DHT22;54391;50.000;7.360;2022-12-13T02:53:27;-5.30;54.50
39401;DHT22;54391;50.000;7.360;2022-12-13T02:56:15;-5.30;54.70
39401;DHT22;54391;50.000;7.360;2022-12-13T02:59:04;-5.10;54.70
39401;DHT22;54391;50.000;7.360;2022-12-13T03:01:58;-5.30;54.30
39401;DHT22;54391;50.000;7.360;2022-12-13T03:05:01;-5.30;53.30
39401;DHT22;54391;50.000;7.360;2022-12-13T03:08:17;-5.40;53.40
39401;DHT22;54391;50.000;7.360;2022-12-13T03:11:07;-5.40;52.90
39401;DHT22;54391;50.000;7.360;2022-12-13T03:13:56;-5.50;53.20
39401;DHT22;54391;50.000;7.360;2022-12-13T03:16:43;-5.50;53.30
39401;DHT22;54391;50.000;7.360;2022-12-13T03:19:30;-5.50;54.10
39401;DHT22;54391;50.000;7.360;2022-12-13T03:22:17;-5.60;54.10
39401;DHT22;54391;50.000;7.360;2022-12-13T03:25:03;-5.50;54.90
39401;DHT22;54391;50.000;7.360;2022-12-13T03:27:49;-5.60;55.40
39401;DHT22;54391;50.000;7.360;2022-12-13T03:30:36;-5.60;55.90
39401;DHT22;54391;50.000;7.360;2022-12-13T03:33:21;-5.50;56.90
39401;DHT22;54391;50.000;7.360;2022-12-13T03:36:08;-5.60;57.00
39401;DHT22;54391;50.000;7.360;2022-12-13T03:38:56;-5.60;57.20
39401;DHT22;54391;50.000;7.360;2022-12-13T03:41:42;-5.60;57.20
39401;DHT22;54391;50.000;7.360;2022-12-13T03:44:28;-5.60;57.20
39401;DHT22;54391;50.000;7.360;2022-12-13T03:47:13;-5.60;57.70
39401;DHT22;54391;50.000;7.360;2022-12-13T03:50:00;-5.60;57.80
39401;DHT22;54391;50.000;7.360;2022-12-13T03:52:46;-5.60;57.40
39401;DHT22;54391;50.000;7.360;2022-12-13T03:55:36;-5.60;57.00
39401;DHT22;54391;50.000;7.360;2022-12-13T03:58:22;-5.70;56.80
39401;DHT22;54391;50.000;7.360;2022-12-13T04:01:10;-5.70;56.00
39401;DHT22;54391;50.000;7.360;2022-12-13T04:03:56;-5.70;54.80
39401;DHT22;54391;50.000;7.360;2022-12-13T04:06:43;-5.70;54.80
39401;DHT22;54391;50.000;7.360;2022-12-13T04:09:28;-5.70;54.80
39401;DHT22;54391;50.000;7.360;2022-12-13T04:12:16;-5.70;54.60
39401;DHT22;54391;50.000;7.360;2022-12-13T04:15:20;-5.80;54.60
39401;DHT22;54391;50.000;7.360;2022-12-13T04:18:06;-5.80;54.40
39401;DHT22;54391;50.000;7.360;2022-12-13T04:20:52;-5.80;53.30
39401;DHT22;54391;50.000;7.360;2022-12-13T04:23:37;-5.80;53.70
39401;DHT22;54391;50.000;7.360;2022-12-13T04:26:23;-5.80;54.10
39401;DHT22;54391;50.000;7.360;2022-12-13T04:29:11;-5.80;53.50
39401;DHT22;54391;50.000;7.360;2022-12-13T04:31:58;-5.90;54.10
39401;DHT22;54391;50.000;7.360;2022-12-13T04:34:46;-5.90;54.10
39401;DHT22;54391;50.000;7.360;2022-12-13T04:37:32;-6.00;54.00
39401;DHT22;54391;50.000;7.360;2022-12-13T04:40:18;-5.90;53.90
39401;DHT22;54391;50.000;7.360;2022-12-13T04:43:04;-6.00;52.60
39401;DHT22;54391;50.000;7.360;2022-12-13T04:45:51;-6.10;53.00
39401;DHT22;54391;50.000;7.360;2022-12-13T04:51:25;-6.10;53.50
39401;DHT22;54391;50.000;7.360;2022-12-13T04:54:10;-6.10;53.10
39401;DHT22;54391;50.000;7.360;2022-12-13T04:56:56;-6.10;53.70
39401;DHT22;54391;50.000;7.360;2022-12-13T04:59:42;-6.00;53.70
39401;DHT22;54391;50.000;7.360;2022-12-13T05:02:31;-6.10;53.50
39401;DHT22;54391;50.000;7.360;2022-12-13T05:05:17;-6.10;53.30
39401;DHT22;54391;50.000;7.360;2022-12-13T05:08:03;-6.20;53.40
39401;DHT22;54391;50.000;7.360;2022-12-13T05:10:50;-6.20;53.20
39401;DHT22;54391;50.000;7.360;2022-12-13T05:13:36;-6.30;53.10
39401;DHT22;54391;50.000;7.360;2022-12-13T05:16:22;-6.20;53.10
39401;DHT22;54391;50.000;7.360;2022-12-13T05:19:09;-6.30;53.50
39401;DHT22;54391;50.000;7.360;2022-12-13T05:21:55;-6.30;53.60
39401;DHT22;54391;50.000;7.360;2022-12-13T05:24:41;-6.30;54.00
39401;DHT22;54391;50.000;7.360;2022-12-13T05:30:13;-6.30;53.70
39401;DHT22;54391;50.000;7.360;2022-12-13T05:33:00;-6.20;53.60
39401;DHT22;54391;50.000;7.360;2022-12-13T05:35:48;-6.20;53.50
39401;DHT22;54391;50.000;7.360;2022-12-13T05:38:33;-6.10;53.20
39401;DHT22;54391;50.000;7.360;2022-12-13T05:41:22;-6.10;52.80
39401;DHT22;54391;50.000;7.360;2022-12-13T05:44:09;-6.10;52.40
39401;DHT22;54391;50.000;7.360;2022-12-13T05:49:42;-6.10;52.20
39401;DHT22;54391;50.000;7.360;2022-12-13T05:52:30;-6.10;51.40
39401;DHT22;54391;50.000;7.360;2022-12-13T05:55:15;-6.10;50.90
39401;DHT22;54391;50.000;7.360;2022-12-13T05:58:01;-6.10;50.80
39401;DHT22;54391;50.000;7.360;2022-12-13T06:00:47;-6.10;51.30
39401;DHT22;54391;50.000;7.360;2022-12-13T06:03:33;-6.20;50.40
39401;DHT22;54391;50.000;7.360;2022-12-13T06:06:19;-6.10;49.80
39401;DHT22;54391;50.000;7.360;2022-12-13T06:09:06;-6.20;49.70
39401;DHT22;54391;50.000;7.360;2022-12-13T06:14:37;-6.10;49.30
39401;DHT22;54391;50.000;7.360;2022-12-13T06:17:23;-6.20;49.10
39401;DHT22;54391;50.000;7.360;2022-12-13T06:20:10;-6.20;48.80
39401;DHT22;54391;50.000;7.360;2022-12-13T06:22:58;-6.20;48.70
39401;DHT22;54391;50.000;7.360;2022-12-13T06:25:45;-6.20;48.30
39401;DHT22;54391;50.000;7.360;2022-12-13T06:28:31;-6.20;47.70
39401;DHT22;54391;50.000;7.360;2022-12-13T06:31:17;-6.20;47.40
39401;DHT22;54391;50.000;7.360;2022-12-13T06:34:03;-6.20;47.30
39401;DHT22;54391;50.000;7.360;2022-12-13T06:36:49;-6.30;47.50
39401;DHT22;54391;50.000;7.360;2022-12-13T06:39:35;-6.30;47.70
39401;DHT22;54391;50.000;7.360;2022-12-13T06:42:22;-6.30;47.40
39401;DHT22;54391;50.000;7.360;2022-12-13T06:45:09;-6.30;47.40
39401;DHT22;54391;50.000;7.360;2022-12-13T06:47:55;-6.40;47.60
39401;DHT22;54391;50.000;7.360;2022-12-13T06:50:41;-6.40;47.80
39401;DHT22;54391;50.000;7.360;2022-12-13T06:53:27;-6.40;47.40
39401;DHT22;54391;50.000;7.360;2022-12-13T06:56:13;-6.30;47.50
39401;DHT22;54391;50.000;7.360;2022-12-13T06:59:00;-6.40;47.60
39401;DHT22;54391;50.000;7.360;2022-12-13T07:01:47;-6.40;47.30
39401;DHT22;54391;50.000;7.360;2022-12-13T07:04:33;-6.40;46.70
39401;DHT22;54391;50.000;7.360;2022-12-13T07:07:19;-6.40;47.00
39401;DHT22;54391;50.000;7.360;2022-12-13T07:10:06;-6.20;47.00
39401;DHT22;54391;50.000;7.360;2022-12-13T07:12:52;-6.40;46.70
39401;DHT22;54391;50.000;7.360;2022-12-13T07:15:39;-6.40;46.30
39401;DHT22;54391;50.000;7.360;2022-12-13T07:18:25;-6.40;46.20
39401;DHT22;54391;50.000;7.360;2022-12-13T07:21:13;-6.30;46.40
39401;DHT22;54391;50.000;7.360;2022-12-13T07:23:59;-6.40;46.10
39401;DHT22;54391;50.000;7.360;2022-12-13T07:26:47;-6.30;46.20
39401;DHT22;54391;50.000;7.360;2022-12-13T07:29:33;-6.30;46.10
39401;DHT22;54391;50.000;7.360;2022-12-13T07:32:21;-6.40;46.70
39401;DHT22;54391;50.000;7.360;2022-12-13T07:35:07;-6.30;46.60
39401;DHT22;54391;50.000;7.360;2022-12-13T07:37:53;-6.30;47.00
39401;DHT22;54391;50.000;7.360;2022-12-13T07:40:40;-6.30;46.30
39401;DHT22;54391;50.000;7.360;2022-12-13T07:43:26;-6.30;46.60
39401;DHT22;54391;50.000;7.360;2022-12-13T07:46:14;-6.30;45.70
39401;DHT22;54391;50.000;7.360;2022-12-13T07:49:02;-6.30;45.70
39401;DHT22;54391;50.000;7.360;2022-12-13T07:51:48;-6.30;45.30
39401;DHT22;54391;50.000;7.360;2022-12-13T07:54:34;-6.40;46.10
39401;DHT22;54391;50.000;7.360;2022-12-13T07:57:20;-6.30;46.40
39401;DHT22;54391;50.000;7.360;2022-12-13T08:00:07;-6.30;45.60
39401;DHT22;54391;50.000;7.360;2022-12-13T08:02:57;-6.20;45.20
39401;DHT22;54391;50.000;7.360;2022-12-13T08:05:44;-6.10;44.90
39401;DHT22;54391;50.000;7.360;2022-12-13T08:08:31;-6.10;44.60
39401;DHT22;54391;50.000;7.360;2022-12-13T08:11:18;-6.20;44.40
39401;DHT22;54391;50.000;7.360;2022-12-13T08:14:04;-6.00;44.80
39401;DHT22;54391;50.000;7.360;2022-12-13T08:16:50;-6.00;44.20
39401;DHT22;54391;50.000;7.360;2022-12-13T08:19:36;-5.90;43.40
39401;DHT22;54391;50.000;7.360;2022-12-13T08:22:24;-5.10;43.40
39401;DHT22;54391;50.000;7.360;2022-12-13T08:25:09;-5.70;41.80
39401;DHT22;54391;50.000;7.360;2022-12-13T08:27:55;-5.60;39.40
39401;DHT22;54391;50.000;7.360;2022-12-13T08:30:41;-5.50;38.30
39401;DHT22;54391;50.000;7.360;2022-12-13T08:33:27;-5.40;38.90
39401;DHT22;54391;50.000;7.360;2022-12-13T08:36:15;-5.40;37.60
39401;DHT22;54391;50.000;7.360;2022-12-13T08:39:03;-5.30;37.70
39401;DHT22;54391;50.000;7.360;2022-12-13T08:41:49;-5.20;36.30
39401;DHT22;54391;50.000;7.360;2022-12-13T08:44:35;-4.60;32.50
39401;DHT22;54391;50.000;7.360;2022-12-13T08:47:22;-4.10;30.50
39401;DHT22;54391;50.000;7.360;2022-12-13T08:52:54;-3.50;25.40
39401;DHT22;54391;50.000;7.360;2022-12-13T08:55:41;-2.50;18.70
39401;DHT22;54391;50.000;7.360;2022-12-13T08:58:28;-2.70;19.30
39401;DHT22;54391;50.000;7.360;2022-12-13T09:01:14;-2.40;16.80
39401;DHT22;54391;50.000;7.360;2022-12-13T09:04:00;-2.50;16.30
39401;DHT22;54391;50.000;7.360;2022-12-13T09:06:47;-2.80;16.60
39401;DHT22;54391;50.000;7.360;2022-12-13T09:12:21;-2.50;15.60
39401;DHT22;54391;50.000;7.360;2022-12-13T09:15:07;-1.70;13.00
39401;DHT22;54391;50.000;7.360;2022-12-13T09:17:54;-1.90;9.70
39401;DHT22;54391;50.000;7.360;2022-12-13T09:20:40;-1.50;10.20
39401;DHT22;54391;50.000;7.360;2022-12-13T09:23:25;-1.10;9.20
39401;DHT22;54391;50.000;7.360;2022-12-13T09:26:13;-0.90;7.10
39401;DHT22;54391;50.000;7.360;2022-12-13T09:29:00;-0.70;5.90
39401;DHT22;54391;50.000;7.360;2022-12-13T09:31:47;-0.60;5.70
39401;DHT22;54391;50.000;7.360;2022-12-13T09:37:19;-1.60;7.50
39401;DHT22;54391;50.000;7.360;2022-12-13T09:40:06;-0.70;6.70
39401;DHT22;54391;50.000;7.360;2022-12-13T09:42:55;-0.10;4.70
39401;DHT22;54391;50.000;7.360;2022-12-13T09:45:44;0.00;4.40
39401;DHT22;54391;50.000;7.360;2022-12-13T09:48:31;-0.40;3.90
39401;DHT22;54391;50.000;7.360;2022-12-13T09:51:17;-0.90;5.20
39401;DHT22;54391;50.000;7.360;2022-12-13T09:54:03;-1.20;5.60
39401;DHT22;54391;50.000;7.360;2022-12-13T09:56:50;-0.90;7.30
39401;DHT22;54391;50.000;7.360;2022-12-13T09:59:36;-1.10;7.50
39401;DHT22;54391;50.000;7.360;2022-12-13T10:02:25;-1.00;7.40
39401;DHT22;54391;50.000;7.360;2022-12-13T10:05:18;-1.20;7.30
39401;DHT22;54391;50.000;7.360;2022-12-13T10:08:06;-0.80;6.50
39401;DHT22;54391;50.000;7.360;2022-12-13T10:10:53;-0.90;6.80
39401;DHT22;54391;50.000;7.360;2022-12-13T10:13:40;-0.90;7.20
39401;DHT22;54391;50.000;7.360;2022-12-13T10:16:34;0.00;6.70
39401;DHT22;54391;50.000;7.360;2022-12-13T10:19:32;0.20;4.60
39401;DHT22;54391;50.000;7.360;2022-12-13T10:22:20;0.30;4.60
39401;DHT22;54391;50.000;7.360;2022-12-13T10:25:08;0.50;2.10
39401;DHT22;54391;50.000;7.360;2022-12-13T10:27:53;0.40;1.30
39401;DHT22;54391;50.000;7.360;2022-12-13T10:30:41;0.90;1.80
39401;DHT22;54391;50.000;7.360;2022-12-13T10:33:29;0.80;1.90
39401;DHT22;54391;50.000;7.360;2022-12-13T10:36:30;1.60;1.00
39401;DHT22;54391;50.000;7.360;2022-12-13T10:42:21;0.10;1.70
39401;DHT22;54391;50.000;7.360;2022-12-13T10:45:14;0.50;1.00
39401;DHT22;54391;50.000;7.360;2022-12-13T10:48:02;0.50;1.40
39401;DHT22;54391;50.000;7.360;2022-12-13T10:50:57;0.00;1.00
39401;DHT22;54391;50.000;7.360;2022-12-13T10:53:48;-0.10;2.90
39401;DHT22;54391;50.000;7.360;2022-12-13T10:56:38;-1.30;5.20
39401;DHT22;54391;50.000;7.360;2022-12-13T10:59:31;-1.00;5.10
39401;DHT22;54391;50.000;7.360;2022-12-13T11:02:30;-1.30;5.20
39401;DHT22;54391;50.000;7.360;2022-12-13T11:05:24;-1.60;7.80
39401;DHT22;54391;50.000;7.360;2022-12-13T11:08:13;-1.20;6.20
39401;DHT22;54391;50.000;7.360;2022-12-13T11:11:01;-0.70;5.60
39401;DHT22;54391;50.000;7.360;2022-12-13T11:13:51;-0.60;4.40
39401;DHT22;54391;50.000;7.360;2022-12-13T11:16:39;-0.40;4.30
39401;DHT22;54391;50.000;7.360;2022-12-13T11:19:34;0.20;2.30
39401;DHT22;54391;50.000;7.360;2022-12-13T11:22:23;-0.30;2.40
39401;DHT22;54391;50.000;7.360;2022-12-13T11:25:20;-0.40;1.50
39401;DHT22;54391;50.000;7.360;2022-12-13T11:28:25;-0.40;1.50
39401;DHT22;54391;50.000;7.360;2022-12-13T11:31:18;-1.30;1.70
39401;DHT22;54391;50.000;7.360;2022-12-13T11:34:13;-0.90;2.50
39401;DHT22;54391;50.000;7.360;2022-12-13T11:37:09;-0.40;3.20
39401;DHT22;54391;50.000;7.360;2022-12-13T11:39:57;-0.30;3.20
39401;DHT22;54391;50.000;7.360;2022-12-13T11:42:50;-0.40;4.30
39401;DHT22;54391;50.000;7.360;2022-12-13T11:45:42;-0.40;4.30
39401;DHT22;54391;50.000;7.360;2022-12-13T11:48:38;-0.10;4.00
39401;DHT22;54391;50.000;7.360;2022-12-13T11:51:28;-0.10;2.60
39401;DHT22;54391;50.000;7.360;2022-12-13T11:54:21;-1.20;4.40
39401;DHT22;54391;50.000;7.360;2022-12-13T11:57:17;-1.00;6.00
39401;DHT22;54391;50.000;7.360;2022-12-13T12:00:21;-1.40;5.80
39401;DHT22;54391;50.000;7.360;2022-12-13T12:03:17;-1.80;6.20
39401;DHT22;54391;50.000;7.360;2022-12-13T12:06:08;-2.00;7.40
39401;DHT22;54391;50.000;7.360;2022-12-13T12:08:59;-1.80;8.10
39401;DHT22;54391;50.000;7.360;2022-12-13T12:11:52;-2.10;7.50
39401;DHT22;54391;50.000;7.360;2022-12-13T12:14:45;-1.90;9.80
39401;DHT22;54391;50.000;7.360;2022-12-13T12:17:31;-1.90;7.30
39401;DHT22;54391;50.000;7.360;2022-12-13T12:20:31;-2.50;8.50
39401;DHT22;54391;50.000;7.360;2022-12-13T12:23:32;-2.50;9.20
39401;DHT22;54391;50.000;7.360;2022-12-13T12:26:26;-2.60;9.80
39401;DHT22;54391;50.000;7.360;2022-12-13T12:29:32;-2.60;9.50
39401;DHT22;54391;50.000;7.360;2022-12-13T12:32:32;-2.60;10.80
39401;DHT22;54391;50.000;7.360;2022-12-13T12:35:42;-2.50;9.30
39401;DHT22;54391;50.000;7.360;2022-12-13T12:38:57;-2.40;9.30
39401;DHT22;54391;50.000;7.360;2022-12-13T12:41:51;-2.60;10.10
39401;DHT22;54391;50.000;7.360;2022-12-13T12:44:47;-2.50;9.70
39401;DHT22;54391;50.000;7.360;2022-12-13T12:47:44;-2.30;9.50
39401;DHT22;54391;50.000;7.360;2022-12-13T12:50:38;-2.40;6.20
39401;DHT22;54391;50.000;7.360;2022-12-13T12:53:37;-2.50;5.80
39401;DHT22;54391;50.000;7.360;2022-12-13T12:56:36;-2.50;8.10
39401;DHT22;54391;50.000;7.360;2022-12-13T12:59:28;-2.40;8.40
39401;DHT22;54391;50.000;7.360;2022-12-13T13:02:20;-2.40;6.10
39401;DHT22;54391;50.000;7.360;2022-12-13T13:05:13;-2.40;7.70
39401;DHT22;54391;50.000;7.360;2022-12-13T13:08:07;-2.50;5.60
39401;DHT22;54391;50.000;7.360;2022-12-13T13:10:54;-2.50;8.10
39401;DHT22;54391;50.000;7.360;2022-12-13T13:13:44;-2.50;8.50
39401;DHT22;54391;50.000;7.360;2022-12-13T13:16:34;-2.70;6.20
39401;DHT22;54391;50.000;7.360;2022-12-13T13:19:40;-2.50;7.10
39401;DHT22;54391;50.000;7.360;2022-12-13T13:22:29;-2.70;6.30
39401;DHT22;54391;50.000;7.360;2022-12-13T13:25:27;-2.70;6.60
39401;DHT22;54391;50.000;7.360;2022-12-13T13:28:15;-2.50;6.30
39401;DHT22;54391;50.000;7.360;2022-12-13T13:31:04;-2.60;6.60
39401;DHT22;54391;50.000;7.360;2022-12-13T13:33:51;-2.70;6.50
39401;DHT22;54391;50.000;7.360;2022-12-13T13:36:45;-2.80;6.30
39401;DHT22;54391;50.000;7.360;2022-12-13T13:39:54;-2.80;6.30
39401;DHT22;54391;50.000;7.360;2022-12-13T13:43:10;-2.80;6.40
39401;DHT22;54391;50.000;7.360;2022-12-13T13:46:07;-2.80;5.10
39401;DHT22;54391;50.000;7.360;2022-12-13T13:48:55;-2.80;5.70
39401;DHT22;54391;50.000;7.360;2022-12-13T13:52:02;-2.80;6.40
39401;DHT22;54391;50.000;7.360;2022-12-13T13:55:25;-2.90;5.80
39401;DHT22;54391;50.000;7.360;2022-12-13T13:58:41;-2.90;7.80
39401;DHT22;54391;50.000;7.360;2022-12-13T14:01:58;-3.10;8.40
39401;DHT22;54391;50.000;7.360;2022-12-13T14:08:29;-3.20;8.90
39401;DHT22;54391;50.000;7.360;2022-12-13T14:11:49;-3.30;8.00
39401;DHT22;54391;50.000;7.360;2022-12-13T14:15:11;-3.30;8.10
39401;DHT22;54391;50.000;7.360;2022-12-13T14:21:46;-3.40;7.90
39401;DHT22;54391;50.000;7.360;2022-12-13T14:24:42;-3.40;8.90
39401;DHT22;54391;50.000;7.360;2022-12-13T14:27:38;-3.40;8.80
39401;DHT22;54391;50.000;7.360;2022-12-13T14:30:27;-3.40;8.90
39401;DHT22;54391;50.000;7.360;2022-12-13T14:33:18;-3.50;9.50
39401;DHT22;54391;50.000;7.360;2022-12-13T14:36:06;-3.60;9.80
39401;DHT22;54391;50.000;7.360;2022-12-13T14:39:00;-3.60;9.90
39401;DHT22;54391;50.000;7.360;2022-12-13T14:41:48;-3.60;9.50
39401;DHT22;54391;50.000;7.360;2022-12-13T14:44:34;-3.60;9.70
39401;DHT22;54391;50.000;7.360;2022-12-13T14:47:22;-3.70;10.90
39401;DHT22;54391;50.000;7.360;2022-12-13T14:50:08;-3.70;11.00
39401;DHT22;54391;50.000;7.360;2022-12-13T14:52:56;-3.80;11.70
39401;DHT22;54391;50.000;7.360;2022-12-13T14:56:02;-3.90;13.40
39401;DHT22;54391;50.000;7.360;2022-12-13T14:58:52;-3.90;12.50
39401;DHT22;54391;50.000;7.360;2022-12-13T15:01:38;-3.90;13.60
39401;DHT22;54391;50.000;7.360;2022-12-13T15:04:29;-4.10;14.40
39401;DHT22;54391;50.000;7.360;2022-12-13T15:07:22;-4.10;15.00
39401;DHT22;54391;50.000;7.360;2022-12-13T15:10:20;-4.20;15.60
39401;DHT22;54391;50.000;7.360;2022-12-13T15:13:21;-4.40;15.50
39401;DHT22;54391;50.000;7.360;2022-12-13T15:16:15;-4.40;16.60
39401;DHT22;54391;50.000;7.360;2022-12-13T15:19:12;-4.50;16.50
39401;DHT22;54391;50.000;7.360;2022-12-13T15:22:04;-4.50;16.50
39401;DHT22;54391;50.000;7.360;2022-12-13T15:24:56;-4.50;17.60
39401;DHT22;54391;50.000;7.360;2022-12-13T15:27:49;-4.50;18.00
39401;DHT22;54391;50.000;7.360;2022-12-13T15:30:37;-4.60;19.20
39401;DHT22;54391;50.000;7.360;2022-12-13T15:33:25;-4.60;20.50
39401;DHT22;54391;50.000;7.360;2022-12-13T15:36:14;-4.60;20.90
39401;DHT22;54391;50.000;7.360;2022-12-13T15:39:03;-4.70;21.90
39401;DHT22;54391;50.000;7.360;2022-12-13T15:41:50;-4.70;21.80
39401;DHT22;54391;50.000;7.360;2022-12-13T15:44:42;-4.80;23.30
39401;DHT22;54391;50.000;7.360;2022-12-13T15:47:30;-4.80;24.40
39401;DHT22;54391;50.000;7.360;2022-12-13T15:50:30;-4.80;24.70
39401;DHT22;54391;50.000;7.360;2022-12-13T15:53:21;-4.90;24.90
39401;DHT22;54391;50.000;7.360;2022-12-13T15:56:30;-4.90;25.00
39401;DHT22;54391;50.000;7.360;2022-12-13T15:59:24;-4.90;25.50
39401;DHT22;54391;50.000;7.360;2022-12-13T16:02:14;-4.90;25.80
39401;DHT22;54391;50.000;7.360;2022-12-13T16:05:08;-5.00;26.80
39401;DHT22;54391;50.000;7.360;2022-12-13T16:07:57;-5.00;27.00
39401;DHT22;54391;50.000;7.360;2022-12-13T16:10:47;-5.00;27.20
39401;DHT22;54391;50.000;7.360;2022-12-13T16:13:36;-5.10;27.40
39401;DHT22;54391;50.000;7.360;2022-12-13T16:16:25;-5.10;27.70
39401;DHT22;54391;50.000;7.360;2022-12-13T16:19:17;-5.00;27.80
39401;DHT22;54391;50.000;7.360;2022-12-13T16:22:03;-5.10;27.80
39401;DHT22;54391;50.000;7.360;2022-12-13T16:24:49;-5.10;27.70
39401;DHT22;54391;50.000;7.360;2022-12-13T16:30:26;-5.20;28.20
39401;DHT22;54391;50.000;7.360;2022-12-13T16:33:12;-5.20;28.30
39401;DHT22;54391;50.000;7.360;2022-12-13T16:35:58;-5.10;28.50
39401;DHT22;54391;50.000;7.360;2022-12-13T16:41:34;-5.10;28.50
39401;DHT22;54391;50.000;7.360;2022-12-13T16:44:31;-5.20;28.60
39401;DHT22;54391;50.000;7.360;2022-12-13T16:47:20;-5.10;29.00
39401;DHT22;54391;50.000;7.360;2022-12-13T16:50:11;-5.10;28.90
39401;DHT22;54391;50.000;7.360;2022-12-13T16:52:58;-5.20;29.20
39401;DHT22;54391;50.000;7.360;2022-12-13T16:55:44;-5.10;28.90
39401;DHT22;54391;50.000;7.360;2022-12-13T16:58:30;-5.10;28.80
39401;DHT22;54391;50.000;7.360;2022-12-13T17:01:18;-5.20;28.50
39401;DHT22;54391;50.000;7.360;2022-12-13T17:04:07;-5.10;28.50
39401;DHT22;54391;50.000;7.360;2022-12-13T17:06:55;-5.10;28.30
39401;DHT22;54391;50.000;7.360;2022-12-13T17:09:40;-5.10;28.50
39401;DHT22;54391;50.000;7.360;2022-12-13T17:12:27;-5.00;28.30
39401;DHT22;54391;50.000;7.360;2022-12-13T17:20:47;-5.00;26.30
39401;DHT22;54391;50.000;7.360;2022-12-13T17:26:21;-5.20;25.10
39401;DHT22;54391;50.000;7.360;2022-12-13T17:29:06;-5.20;24.80
39401;DHT22;54391;50.000;7.360;2022-12-13T17:31:53;-4.90;24.90
39401;DHT22;54391;50.000;7.360;2022-12-13T17:34:39;-4.90;25.70
39401;DHT22;54391;50.000;7.360;2022-12-13T17:37:26;-5.00;26.60
39401;DHT22;54391;50.000;7.360;2022-12-13T17:40:12;-5.00;26.00
39401;DHT22;54391;50.000;7.360;2022-12-13T17:43:00;-5.00;26.20
39401;DHT22;54391;50.000;7.360;2022-12-13T17:45:46;-5.00;26.00
39401;DHT22;54391;50.000;7.360;2022-12-13T17:48:33;-5.10;26.50
39401;DHT22;54391;50.000;7.360;2022-12-13T17:51:19;-5.00;26.50
39401;DHT22;54391;50.000;7.360;2022-12-13T17:54:06;-5.30;26.70
39401;DHT22;54391;50.000;7.360;2022-12-13T17:56:52;-5.10;27.10
39401;DHT22;54391;50.000;7.360;2022-12-13T17:59:39;-5.00;26.60
39401;DHT22;54391;50.000;7.360;2022-12-13T18:02:25;-5.00;26.30
39401;DHT22;54391;50.000;7.360;2022-12-13T18:05:11;-5.00;26.40
39401;DHT22;54391;50.000;7.360;2022-12-13T18:07:57;-5.00;26.10
39401;DHT22;54391;50.000;7.360;2022-12-13T18:10:51;-5.00;25.20
39401;DHT22;54391;50.000;7.360;2022-12-13T18:13:38;-5.00;25.50
39401;DHT22;54391;50.000;7.360;2022-12-13T18:16:25;-5.00;25.20
39401;DHT22;54391;50.000;7.360;2022-12-13T18:19:12;-4.90;25.10
39401;DHT22;54391;50.000;7.360;2022-12-13T18:21:59;-4.90;25.70
39401;DHT22;54391;50.000;7.360;2022-12-13T18:27:33;-4.90;24.20
39401;DHT22;54391;50.000;7.360;2022-12-13T18:35:56;-4.90;24.90
39401;DHT22;54391;50.000;7.360;2022-12-13T18:38:42;-4.80;25.60
39401;DHT22;54391;50.000;7.360;2022-12-13T18:41:28;-4.80;23.50
39401;DHT22;54391;50.000;7.360;2022-12-13T18:44:16;-4.80;23.70
39401;DHT22;54391;50.000;7.360;2022-12-13T18:49:48;-4.80;23.50
39401;DHT22;54391;50.000;7.360;2022-12-13T18:55:19;-4.70;23.50
39401;DHT22;54391;50.000;7.360;2022-12-13T18:58:06;-4.80;24.00
39401;DHT22;54391;50.000;7.360;2022-12-13T19:00:54;-4.80;24.20
39401;DHT22;54391;50.000;7.360;2022-12-13T19:03:42;-4.80;23.70
39401;DHT22;54391;50.000;7.360;2022-12-13T19:06:28;-4.80;24.50
39401;DHT22;54391;50.000;7.360;2022-12-13T19:09:14;-4.80;24.00